Terminal Aerodrome Forecast
Issued by NWS Pueblo, CO

Home | Current Version | Previous Version | Text Only | Print | Product List | Glossary On
Versions: 1 2 3 4 5 6 7 8 9 10 11 12 13 14 15 16 17 18 19 20 21 22 23 24 25 26 27 28 29 30 31 32 33 34 35 36 37 38 39 40 41 42 43 44 45 46 47
000
FTUS45 KPUB 020023 AAB
TAFPUB
TAF AMD
KPUB 020023Z 0200/0224 15010KT P6SM VCTS FEW030 BKN080CB
      TEMPO 0200/0203 VRB20G30KT 4SM TSRA BKN040CB
     FM020300 28008KT P6SM SCT070 BKN120
     FM020700 VRB05KT P6SM SCT150=

USA.gov is the U.S. government's official web portal to all federal, state and local government web resources and services.